sensor_id;sensor_type;location;lat;lon;timestamp;P1;durP1;ratioP1;P2;durP2;ratioP2
76837;SDS011;65797;47.352;8.164;2024-01-15T00:00:18;22.87;;;9.67;;
76837;SDS011;65797;47.352;8.164;2024-01-15T00:02:44;16.83;;;9.40;;
76837;SDS011;65797;47.352;8.164;2024-01-15T00:05:10;22.23;;;9.13;;
76837;SDS011;65797;47.352;8.164;2024-01-15T00:07:36;16.37;;;8.30;;
76837;SDS011;65797;47.352;8.164;2024-01-15T00:10:02;15.37;;;9.10;;
76837;SDS011;65797;47.352;8.164;2024-01-15T00:12:28;19.40;;;9.23;;
76837;SDS011;65797;47.352;8.164;2024-01-15T00:14:53;20.37;;;9.10;;
76837;SDS011;65797;47.352;8.164;2024-01-15T00:17:19;18.90;;;8.13;;
76837;SDS011;65797;47.352;8.164;2024-01-15T00:19:45;19.77;;;9.13;;
76837;SDS011;65797;47.352;8.164;2024-01-15T00:22:10;19.30;;;8.17;;
76837;SDS011;65797;47.352;8.164;2024-01-15T00:24:36;14.97;;;7.87;;
76837;SDS011;65797;47.352;8.164;2024-01-15T00:27:02;16.83;;;8.53;;
76837;SDS011;65797;47.352;8.164;2024-01-15T00:29:28;17.27;;;8.40;;
76837;SDS011;65797;47.352;8.164;2024-01-15T00:31:53;19.37;;;8.40;;
76837;SDS011;65797;47.352;8.164;2024-01-15T00:34:19;14.23;;;7.37;;
76837;SDS011;65797;47.352;8.164;2024-01-15T00:36:45;9.33;;;6.10;;
76837;SDS011;65797;47.352;8.164;2024-01-15T00:39:10;11.83;;;6.73;;
76837;SDS011;65797;47.352;8.164;2024-01-15T00:41:36;12.73;;;6.37;;
76837;SDS011;65797;47.352;8.164;2024-01-15T00:44:02;15.83;;;7.40;;
76837;SDS011;65797;47.352;8.164;2024-01-15T00:46:28;11.70;;;6.33;;
76837;SDS011;65797;47.352;8.164;2024-01-15T00:48:54;16.27;;;7.53;;
76837;SDS011;65797;47.352;8.164;2024-01-15T00:51:19;13.03;;;6.87;;
76837;SDS011;65797;47.352;8.164;2024-01-15T00:53:45;15.20;;;8.43;;
76837;SDS011;65797;47.352;8.164;2024-01-15T00:56:11;14.20;;;7.27;;
76837;SDS011;65797;47.352;8.164;2024-01-15T00:58:36;13.00;;;7.00;;
76837;SDS011;65797;47.352;8.164;2024-01-15T01:01:02;14.70;;;7.13;;
76837;SDS011;65797;47.352;8.164;2024-01-15T01:03:28;16.67;;;8.73;;
76837;SDS011;65797;47.352;8.164;2024-01-15T01:05:54;20.60;;;9.80;;
76837;SDS011;65797;47.352;8.164;2024-01-15T01:08:19;21.53;;;10.87;;
76837;SDS011;65797;47.352;8.164;2024-01-15T01:10:45;23.63;;;11.70;;
76837;SDS011;65797;47.352;8.164;2024-01-15T01:13:10;32.03;;;14.40;;
76837;SDS011;65797;47.352;8.164;2024-01-15T01:15:36;30.90;;;14.03;;
76837;SDS011;65797;47.352;8.164;2024-01-15T01:18:03;30.20;;;14.80;;
76837;SDS011;65797;47.352;8.164;2024-01-15T01:20:29;30.27;;;14.70;;
76837;SDS011;65797;47.352;8.164;2024-01-15T01:22:55;40.20;;;16.53;;
76837;SDS011;65797;47.352;8.164;2024-01-15T01:25:21;31.43;;;14.60;;
76837;SDS011;65797;47.352;8.164;2024-01-15T01:27:46;32.70;;;13.50;;
76837;SDS011;65797;47.352;8.164;2024-01-15T01:30:12;28.60;;;14.20;;
76837;SDS011;65797;47.352;8.164;2024-01-15T01:32:38;31.00;;;13.00;;
76837;SDS011;65797;47.352;8.164;2024-01-15T01:35:04;27.00;;;12.43;;
76837;SDS011;65797;47.352;8.164;2024-01-15T01:37:30;22.40;;;12.00;;
76837;SDS011;65797;47.352;8.164;2024-01-15T01:39:55;23.50;;;12.70;;
76837;SDS011;65797;47.352;8.164;2024-01-15T01:42:21;27.20;;;11.97;;
76837;SDS011;65797;47.352;8.164;2024-01-15T01:44:47;21.77;;;10.77;;
76837;SDS011;65797;47.352;8.164;2024-01-15T01:47:12;26.60;;;12.27;;
76837;SDS011;65797;47.352;8.164;2024-01-15T01:49:39;22.17;;;10.50;;
76837;SDS011;65797;47.352;8.164;2024-01-15T01:52:06;17.53;;;9.73;;
76837;SDS011;65797;47.352;8.164;2024-01-15T01:54:32;20.90;;;10.40;;
76837;SDS011;65797;47.352;8.164;2024-01-15T01:56:59;23.73;;;9.90;;
76837;SDS011;65797;47.352;8.164;2024-01-15T01:59:25;20.70;;;10.17;;
76837;SDS011;65797;47.352;8.164;2024-01-15T02:01:53;19.70;;;10.13;;
76837;SDS011;65797;47.352;8.164;2024-01-15T02:04:19;20.27;;;10.50;;
76837;SDS011;65797;47.352;8.164;2024-01-15T02:06:47;20.07;;;9.60;;
76837;SDS011;65797;47.352;8.164;2024-01-15T02:09:13;18.60;;;10.37;;
76837;SDS011;65797;47.352;8.164;2024-01-15T02:11:40;18.93;;;9.87;;
76837;SDS011;65797;47.352;8.164;2024-01-15T02:14:07;22.67;;;10.80;;
76837;SDS011;65797;47.352;8.164;2024-01-15T02:16:34;16.60;;;10.50;;
76837;SDS011;65797;47.352;8.164;2024-01-15T02:18:59;18.97;;;10.03;;
76837;SDS011;65797;47.352;8.164;2024-01-15T02:21:25;22.73;;;11.00;;
76837;SDS011;65797;47.352;8.164;2024-01-15T02:23:53;20.33;;;10.30;;
76837;SDS011;65797;47.352;8.164;2024-01-15T02:26:22;19.47;;;10.60;;
76837;SDS011;65797;47.352;8.164;2024-01-15T02:28:48;19.43;;;9.73;;
76837;SDS011;65797;47.352;8.164;2024-01-15T02:31:15;19.30;;;10.23;;
76837;SDS011;65797;47.352;8.164;2024-01-15T02:33:42;21.50;;;11.03;;
76837;SDS011;65797;47.352;8.164;2024-01-15T02:36:08;23.77;;;10.70;;
76837;SDS011;65797;47.352;8.164;2024-01-15T02:38:34;18.70;;;9.77;;
76837;SDS011;65797;47.352;8.164;2024-01-15T02:41:00;23.70;;;10.43;;
76837;SDS011;65797;47.352;8.164;2024-01-15T02:43:25;22.53;;;10.70;;
76837;SDS011;65797;47.352;8.164;2024-01-15T02:45:51;23.83;;;11.50;;
76837;SDS011;65797;47.352;8.164;2024-01-15T02:48:17;21.70;;;11.40;;
76837;SDS011;65797;47.352;8.164;2024-01-15T02:50:42;21.93;;;11.57;;
76837;SDS011;65797;47.352;8.164;2024-01-15T02:53:08;24.37;;;10.93;;
76837;SDS011;65797;47.352;8.164;2024-01-15T02:55:34;20.30;;;10.87;;
76837;SDS011;65797;47.352;8.164;2024-01-15T02:57:59;30.13;;;13.33;;
76837;SDS011;65797;47.352;8.164;2024-01-15T03:00:25;25.57;;;12.60;;
76837;SDS011;65797;47.352;8.164;2024-01-15T03:02:51;28.03;;;13.20;;
76837;SDS011;65797;47.352;8.164;2024-01-15T03:05:16;26.63;;;13.50;;
76837;SDS011;65797;47.352;8.164;2024-01-15T03:07:42;29.10;;;13.37;;
76837;SDS011;65797;47.352;8.164;2024-01-15T03:10:08;25.23;;;12.47;;
76837;SDS011;65797;47.352;8.164;2024-01-15T03:12:34;26.20;;;12.40;;
76837;SDS011;65797;47.352;8.164;2024-01-15T03:15:00;25.20;;;12.87;;
76837;SDS011;65797;47.352;8.164;2024-01-15T03:17:26;25.67;;;12.47;;
76837;SDS011;65797;47.352;8.164;2024-01-15T03:19:52;28.93;;;12.33;;
76837;SDS011;65797;47.352;8.164;2024-01-15T03:22:18;28.23;;;12.40;;
76837;SDS011;65797;47.352;8.164;2024-01-15T03:24:43;32.43;;;11.77;;
76837;SDS011;65797;47.352;8.164;2024-01-15T03:27:09;24.37;;;11.90;;
76837;SDS011;65797;47.352;8.164;2024-01-15T03:29:35;29.57;;;12.97;;
76837;SDS011;65797;47.352;8.164;2024-01-15T03:32:01;26.17;;;11.90;;
76837;SDS011;65797;47.352;8.164;2024-01-15T03:34:26;24.67;;;12.30;;
76837;SDS011;65797;47.352;8.164;2024-01-15T03:36:52;23.30;;;11.67;;
76837;SDS011;65797;47.352;8.164;2024-01-15T03:39:17;26.73;;;12.30;;
76837;SDS011;65797;47.352;8.164;2024-01-15T03:41:43;25.20;;;12.17;;
76837;SDS011;65797;47.352;8.164;2024-01-15T03:44:09;28.07;;;12.50;;
76837;SDS011;65797;47.352;8.164;2024-01-15T03:46:35;27.90;;;13.80;;
76837;SDS011;65797;47.352;8.164;2024-01-15T03:49:01;29.77;;;13.70;;
76837;SDS011;65797;47.352;8.164;2024-01-15T03:51:27;28.00;;;13.27;;
76837;SDS011;65797;47.352;8.164;2024-01-15T03:53:52;26.30;;;12.80;;
76837;SDS011;65797;47.352;8.164;2024-01-15T03:56:18;26.40;;;12.60;;
76837;SDS011;65797;47.352;8.164;2024-01-15T03:58:44;21.17;;;11.03;;
76837;SDS011;65797;47.352;8.164;2024-01-15T04:01:10;23.27;;;11.40;;
76837;SDS011;65797;47.352;8.164;2024-01-15T04:03:36;26.10;;;12.50;;
76837;SDS011;65797;47.352;8.164;2024-01-15T04:06:01;26.13;;;12.03;;
76837;SDS011;65797;47.352;8.164;2024-01-15T04:08:28;29.23;;;12.97;;
76837;SDS011;65797;47.352;8.164;2024-01-15T04:10:55;23.23;;;11.53;;
76837;SDS011;65797;47.352;8.164;2024-01-15T04:13:20;24.97;;;12.00;;
76837;SDS011;65797;47.352;8.164;2024-01-15T04:15:46;24.33;;;11.47;;
76837;SDS011;65797;47.352;8.164;2024-01-15T04:18:12;23.70;;;11.50;;
76837;SDS011;65797;47.352;8.164;2024-01-15T04:20:38;24.30;;;11.30;;
76837;SDS011;65797;47.352;8.164;2024-01-15T04:23:04;20.23;;;10.50;;
76837;SDS011;65797;47.352;8.164;2024-01-15T04:25:30;22.77;;;11.20;;
76837;SDS011;65797;47.352;8.164;2024-01-15T04:27:56;26.37;;;12.37;;
76837;SDS011;65797;47.352;8.164;2024-01-15T04:30:21;27.60;;;11.87;;
76837;SDS011;65797;47.352;8.164;2024-01-15T04:32:47;25.57;;;12.70;;
76837;SDS011;65797;47.352;8.164;2024-01-15T04:35:13;26.00;;;11.80;;
76837;SDS011;65797;47.352;8.164;2024-01-15T04:37:39;28.53;;;12.67;;
76837;SDS011;65797;47.352;8.164;2024-01-15T04:40:05;24.67;;;10.47;;
76837;SDS011;65797;47.352;8.164;2024-01-15T04:42:32;20.60;;;11.70;;
76837;SDS011;65797;47.352;8.164;2024-01-15T04:44:58;23.07;;;11.10;;
76837;SDS011;65797;47.352;8.164;2024-01-15T04:47:23;24.60;;;10.50;;
76837;SDS011;65797;47.352;8.164;2024-01-15T04:49:49;21.83;;;11.07;;
76837;SDS011;65797;47.352;8.164;2024-01-15T04:52:15;22.63;;;11.87;;
76837;SDS011;65797;47.352;8.164;2024-01-15T04:54:41;17.33;;;9.40;;
76837;SDS011;65797;47.352;8.164;2024-01-15T04:57:06;28.40;;;10.87;;
76837;SDS011;65797;47.352;8.164;2024-01-15T04:59:33;20.60;;;9.17;;
76837;SDS011;65797;47.352;8.164;2024-01-15T05:01:59;20.70;;;10.20;;
76837;SDS011;65797;47.352;8.164;2024-01-15T05:04:24;19.20;;;10.20;;
76837;SDS011;65797;47.352;8.164;2024-01-15T05:06:50;22.90;;;11.77;;
76837;SDS011;65797;47.352;8.164;2024-01-15T05:09:16;20.60;;;10.10;;
76837;SDS011;65797;47.352;8.164;2024-01-15T05:11:43;20.20;;;9.60;;
76837;SDS011;65797;47.352;8.164;2024-01-15T05:14:09;20.60;;;10.47;;
76837;SDS011;65797;47.352;8.164;2024-01-15T05:16:34;19.27;;;9.70;;
76837;SDS011;65797;47.352;8.164;2024-01-15T05:19:02;18.67;;;9.70;;
76837;SDS011;65797;47.352;8.164;2024-01-15T05:21:28;15.50;;;7.40;;
76837;SDS011;65797;47.352;8.164;2024-01-15T05:23:54;21.50;;;8.37;;
76837;SDS011;65797;47.352;8.164;2024-01-15T05:26:20;17.17;;;9.03;;
76837;SDS011;65797;47.352;8.164;2024-01-15T05:28:45;17.50;;;8.80;;
76837;SDS011;65797;47.352;8.164;2024-01-15T05:31:12;16.40;;;8.50;;
76837;SDS011;65797;47.352;8.164;2024-01-15T05:33:38;16.90;;;8.60;;
76837;SDS011;65797;47.352;8.164;2024-01-15T05:36:04;16.33;;;8.20;;
76837;SDS011;65797;47.352;8.164;2024-01-15T05:38:30;15.67;;;7.97;;
76837;SDS011;65797;47.352;8.164;2024-01-15T05:40:55;23.50;;;9.47;;
76837;SDS011;65797;47.352;8.164;2024-01-15T05:43:21;15.40;;;8.27;;
76837;SDS011;65797;47.352;8.164;2024-01-15T05:45:47;17.53;;;8.40;;
76837;SDS011;65797;47.352;8.164;2024-01-15T05:48:12;22.37;;;10.10;;
76837;SDS011;65797;47.352;8.164;2024-01-15T05:50:38;16.30;;;8.30;;
76837;SDS011;65797;47.352;8.164;2024-01-15T05:53:04;17.60;;;8.20;;
76837;SDS011;65797;47.352;8.164;2024-01-15T05:55:30;18.03;;;8.00;;
76837;SDS011;65797;47.352;8.164;2024-01-15T05:57:55;23.83;;;9.73;;
76837;SDS011;65797;47.352;8.164;2024-01-15T06:00:21;16.47;;;8.63;;
76837;SDS011;65797;47.352;8.164;2024-01-15T06:02:50;19.07;;;9.30;;
76837;SDS011;65797;47.352;8.164;2024-01-15T06:05:16;16.20;;;8.30;;
76837;SDS011;65797;47.352;8.164;2024-01-15T06:07:42;17.33;;;8.83;;
76837;SDS011;65797;47.352;8.164;2024-01-15T06:10:08;18.47;;;8.67;;
76837;SDS011;65797;47.352;8.164;2024-01-15T06:12:34;15.47;;;8.40;;
76837;SDS011;65797;47.352;8.164;2024-01-15T06:15:00;18.33;;;9.20;;
76837;SDS011;65797;47.352;8.164;2024-01-15T06:17:25;20.67;;;8.60;;
76837;SDS011;65797;47.352;8.164;2024-01-15T06:19:51;16.10;;;8.87;;
76837;SDS011;65797;47.352;8.164;2024-01-15T06:22:19;15.70;;;8.83;;
76837;SDS011;65797;47.352;8.164;2024-01-15T06:24:45;14.40;;;8.47;;
76837;SDS011;65797;47.352;8.164;2024-01-15T06:27:11;16.00;;;8.40;;
76837;SDS011;65797;47.352;8.164;2024-01-15T06:29:37;14.23;;;7.53;;
76837;SDS011;65797;47.352;8.164;2024-01-15T06:32:03;16.77;;;8.40;;
76837;SDS011;65797;47.352;8.164;2024-01-15T06:34:29;16.43;;;8.50;;
76837;SDS011;65797;47.352;8.164;2024-01-15T06:36:55;14.50;;;7.13;;
76837;SDS011;65797;47.352;8.164;2024-01-15T06:39:21;13.60;;;7.43;;
76837;SDS011;65797;47.352;8.164;2024-01-15T06:41:46;11.33;;;6.30;;
76837;SDS011;65797;47.352;8.164;2024-01-15T06:44:12;14.70;;;7.50;;
76837;SDS011;65797;47.352;8.164;2024-01-15T06:46:44;11.83;;;6.20;;
76837;SDS011;65797;47.352;8.164;2024-01-15T06:49:11;20.30;;;6.30;;
76837;SDS011;65797;47.352;8.164;2024-01-15T06:51:37;10.37;;;6.30;;
76837;SDS011;65797;47.352;8.164;2024-01-15T06:54:03;11.37;;;6.40;;
76837;SDS011;65797;47.352;8.164;2024-01-15T06:56:29;8.27;;;5.10;;
76837;SDS011;65797;47.352;8.164;2024-01-15T06:58:54;14.20;;;6.87;;
76837;SDS011;65797;47.352;8.164;2024-01-15T07:01:20;9.40;;;5.00;;
76837;SDS011;65797;47.352;8.164;2024-01-15T07:03:46;12.17;;;5.70;;
76837;SDS011;65797;47.352;8.164;2024-01-15T07:06:12;16.30;;;4.90;;
76837;SDS011;65797;47.352;8.164;2024-01-15T07:08:38;10.70;;;5.43;;
76837;SDS011;65797;47.352;8.164;2024-01-15T07:11:04;11.57;;;5.07;;
76837;SDS011;65797;47.352;8.164;2024-01-15T07:13:30;8.50;;;5.40;;
76837;SDS011;65797;47.352;8.164;2024-01-15T07:15:57;8.80;;;5.20;;
76837;SDS011;65797;47.352;8.164;2024-01-15T07:18:22;9.73;;;5.00;;
76837;SDS011;65797;47.352;8.164;2024-01-15T07:20:48;9.20;;;4.20;;
76837;SDS011;65797;47.352;8.164;2024-01-15T07:23:14;8.73;;;4.73;;
76837;SDS011;65797;47.352;8.164;2024-01-15T07:25:40;6.20;;;4.27;;
76837;SDS011;65797;47.352;8.164;2024-01-15T07:28:06;5.07;;;4.17;;
76837;SDS011;65797;47.352;8.164;2024-01-15T07:30:31;5.30;;;3.83;;
76837;SDS011;65797;47.352;8.164;2024-01-15T07:32:57;6.13;;;4.57;;
76837;SDS011;65797;47.352;8.164;2024-01-15T07:35:23;8.40;;;4.37;;
76837;SDS011;65797;47.352;8.164;2024-01-15T07:37:48;9.67;;;4.27;;
76837;SDS011;65797;47.352;8.164;2024-01-15T07:40:14;5.87;;;3.67;;
76837;SDS011;65797;47.352;8.164;2024-01-15T07:42:40;7.80;;;4.67;;
76837;SDS011;65797;47.352;8.164;2024-01-15T10:33:51;5.23;;;2.50;;
76837;SDS011;65797;47.352;8.164;2024-01-15T10:36:17;2.30;;;1.93;;
76837;SDS011;65797;47.352;8.164;2024-01-15T10:38:43;3.67;;;2.30;;
76837;SDS011;65797;47.352;8.164;2024-01-15T10:41:09;2.00;;;1.80;;
76837;SDS011;65797;47.352;8.164;2024-01-15T10:43:35;3.10;;;2.53;;
76837;SDS011;65797;47.352;8.164;2024-01-15T10:46:01;7.93;;;2.60;;
76837;SDS011;65797;47.352;8.164;2024-01-15T10:48:28;2.37;;;1.80;;
76837;SDS011;65797;47.352;8.164;2024-01-15T10:50:56;2.70;;;2.10;;
76837;SDS011;65797;47.352;8.164;2024-01-15T10:53:23;2.40;;;1.90;;
76837;SDS011;65797;47.352;8.164;2024-01-15T10:55:53;2.60;;;2.20;;
76837;SDS011;65797;47.352;8.164;2024-01-15T10:58:18;3.20;;;2.30;;
76837;SDS011;65797;47.352;8.164;2024-01-15T11:00:46;3.00;;;1.87;;
76837;SDS011;65797;47.352;8.164;2024-01-15T11:03:11;1.80;;;1.70;;
76837;SDS011;65797;47.352;8.164;2024-01-15T11:05:38;2.77;;;2.20;;
76837;SDS011;65797;47.352;8.164;2024-01-15T11:08:17;3.90;;;2.40;;
76837;SDS011;65797;47.352;8.164;2024-01-15T11:10:53;5.43;;;2.43;;
76837;SDS011;65797;47.352;8.164;2024-01-15T11:16:06;2.90;;;2.20;;
76837;SDS011;65797;47.352;8.164;2024-01-15T11:18:36;3.53;;;1.90;;
76837;SDS011;65797;47.352;8.164;2024-01-15T11:23:44;1.70;;;1.60;;
76837;SDS011;65797;47.352;8.164;2024-01-15T11:32:08;4.40;;;1.80;;
76837;SDS011;65797;47.352;8.164;2024-01-15T11:34:50;2.90;;;1.70;;
76837;SDS011;65797;47.352;8.164;2024-01-15T11:37:17;4.97;;;1.93;;
76837;SDS011;65797;47.352;8.164;2024-01-15T11:39:43;2.30;;;1.63;;
76837;SDS011;65797;47.352;8.164;2024-01-15T11:42:09;2.50;;;1.83;;
76837;SDS011;65797;47.352;8.164;2024-01-15T11:44:37;3.10;;;1.80;;
76837;SDS011;65797;47.352;8.164;2024-01-15T11:47:04;3.03;;;2.43;;
76837;SDS011;65797;47.352;8.164;2024-01-15T11:49:58;2.60;;;2.37;;
76837;SDS011;65797;47.352;8.164;2024-01-15T11:52:35;2.80;;;1.90;;
76837;SDS011;65797;47.352;8.164;2024-01-15T12:49:24;7.63;;;2.63;;
76837;SDS011;65797;47.352;8.164;2024-01-15T12:51:54;3.93;;;2.70;;
76837;SDS011;65797;47.352;8.164;2024-01-15T12:54:22;3.03;;;2.63;;
76837;SDS011;65797;47.352;8.164;2024-01-15T12:56:49;4.10;;;3.03;;
76837;SDS011;65797;47.352;8.164;2024-01-15T13:07:14;5.20;;;3.40;;
76837;SDS011;65797;47.352;8.164;2024-01-15T13:09:43;4.30;;;2.70;;
76837;SDS011;65797;47.352;8.164;2024-01-15T13:12:08;3.60;;;2.80;;
76837;SDS011;65797;47.352;8.164;2024-01-15T13:14:34;4.53;;;2.47;;
76837;SDS011;65797;47.352;8.164;2024-01-15T13:17:01;5.80;;;2.70;;
76837;SDS011;65797;47.352;8.164;2024-01-15T13:19:28;5.50;;;2.90;;
76837;SDS011;65797;47.352;8.164;2024-01-15T13:21:54;6.10;;;3.53;;
76837;SDS011;65797;47.352;8.164;2024-01-15T13:24:20;6.50;;;3.63;;
76837;SDS011;65797;47.352;8.164;2024-01-15T13:26:46;7.47;;;4.13;;
76837;SDS011;65797;47.352;8.164;2024-01-15T13:29:12;6.80;;;4.20;;
76837;SDS011;65797;47.352;8.164;2024-01-15T13:31:39;8.13;;;4.10;;
76837;SDS011;65797;47.352;8.164;2024-01-15T13:34:04;7.70;;;4.30;;
76837;SDS011;65797;47.352;8.164;2024-01-15T13:36:32;15.07;;;5.30;;
76837;SDS011;65797;47.352;8.164;2024-01-15T13:38:57;11.17;;;5.27;;
76837;SDS011;65797;47.352;8.164;2024-01-15T13:41:24;14.80;;;5.00;;
76837;SDS011;65797;47.352;8.164;2024-01-15T13:43:53;8.60;;;3.67;;
76837;SDS011;65797;47.352;8.164;2024-01-15T13:46:19;7.70;;;4.10;;
76837;SDS011;65797;47.352;8.164;2024-01-15T13:48:49;10.73;;;4.90;;
76837;SDS011;65797;47.352;8.164;2024-01-15T13:51:14;9.63;;;4.80;;
76837;SDS011;65797;47.352;8.164;2024-01-15T13:53:40;7.57;;;4.83;;
76837;SDS011;65797;47.352;8.164;2024-01-15T13:56:06;12.80;;;6.00;;
76837;SDS011;65797;47.352;8.164;2024-01-15T13:58:33;12.07;;;6.17;;
76837;SDS011;65797;47.352;8.164;2024-01-15T14:00:59;14.27;;;6.47;;
76837;SDS011;65797;47.352;8.164;2024-01-15T14:03:25;9.90;;;6.10;;
76837;SDS011;65797;47.352;8.164;2024-01-15T14:05:51;16.50;;;6.77;;
76837;SDS011;65797;47.352;8.164;2024-01-15T14:08:17;13.07;;;7.10;;
76837;SDS011;65797;47.352;8.164;2024-01-15T14:10:43;13.50;;;6.43;;
76837;SDS011;65797;47.352;8.164;2024-01-15T14:13:10;18.77;;;8.00;;
76837;SDS011;65797;47.352;8.164;2024-01-15T14:15:35;12.23;;;6.70;;
76837;SDS011;65797;47.352;8.164;2024-01-15T14:18:01;16.07;;;6.17;;
76837;SDS011;65797;47.352;8.164;2024-01-15T14:20:27;15.90;;;7.03;;
76837;SDS011;65797;47.352;8.164;2024-01-15T14:22:53;13.83;;;7.57;;
76837;SDS011;65797;47.352;8.164;2024-01-15T14:25:19;15.83;;;6.40;;
76837;SDS011;65797;47.352;8.164;2024-01-15T14:27:46;16.13;;;6.77;;
76837;SDS011;65797;47.352;8.164;2024-01-15T14:30:12;17.40;;;7.77;;
76837;SDS011;65797;47.352;8.164;2024-01-15T14:32:40;15.57;;;6.63;;
76837;SDS011;65797;47.352;8.164;2024-01-15T14:35:06;14.47;;;7.73;;
76837;SDS011;65797;47.352;8.164;2024-01-15T14:37:35;14.27;;;6.90;;
76837;SDS011;65797;47.352;8.164;2024-01-15T14:40:07;16.53;;;7.50;;
76837;SDS011;65797;47.352;8.164;2024-01-15T14:42:36;10.90;;;6.10;;
76837;SDS011;65797;47.352;8.164;2024-01-15T14:45:05;14.30;;;6.77;;
76837;SDS011;65797;47.352;8.164;2024-01-15T14:47:36;14.03;;;6.40;;
76837;SDS011;65797;47.352;8.164;2024-01-15T14:50:02;10.23;;;5.20;;
76837;SDS011;65797;47.352;8.164;2024-01-15T15:08:27;23.63;;;10.77;;
76837;SDS011;65797;47.352;8.164;2024-01-15T16:13:02;21.30;;;8.90;;
76837;SDS011;65797;47.352;8.164;2024-01-15T16:15:28;16.67;;;8.10;;
76837;SDS011;65797;47.352;8.164;2024-01-15T16:17:53;16.50;;;8.37;;
76837;SDS011;65797;47.352;8.164;2024-01-15T16:20:19;14.83;;;6.73;;
76837;SDS011;65797;47.352;8.164;2024-01-15T16:22:46;10.97;;;5.77;;
76837;SDS011;65797;47.352;8.164;2024-01-15T16:25:11;13.50;;;6.77;;
76837;SDS011;65797;47.352;8.164;2024-01-15T16:27:37;9.10;;;4.97;;
76837;SDS011;65797;47.352;8.164;2024-01-15T16:30:03;11.30;;;5.27;;
76837;SDS011;65797;47.352;8.164;2024-01-15T16:32:31;11.27;;;5.10;;
76837;SDS011;65797;47.352;8.164;2024-01-15T16:34:57;8.47;;;4.53;;
76837;SDS011;65797;47.352;8.164;2024-01-15T16:37:23;9.23;;;4.87;;
76837;SDS011;65797;47.352;8.164;2024-01-15T16:39:48;6.83;;;4.20;;
76837;SDS011;65797;47.352;8.164;2024-01-15T16:42:14;5.53;;;3.40;;
76837;SDS011;65797;47.352;8.164;2024-01-15T16:44:41;6.63;;;3.80;;
76837;SDS011;65797;47.352;8.164;2024-01-15T16:47:06;6.10;;;3.60;;
76837;SDS011;65797;47.352;8.164;2024-01-15T16:49:32;9.37;;;3.70;;
76837;SDS011;65797;47.352;8.164;2024-01-15T16:51:57;6.83;;;3.90;;
76837;SDS011;65797;47.352;8.164;2024-01-15T16:54:25;7.30;;;4.10;;
76837;SDS011;65797;47.352;8.164;2024-01-15T16:56:50;6.60;;;3.80;;
76837;SDS011;65797;47.352;8.164;2024-01-15T16:59:16;9.90;;;3.63;;
76837;SDS011;65797;47.352;8.164;2024-01-15T17:01:42;5.80;;;3.17;;
76837;SDS011;65797;47.352;8.164;2024-01-15T17:04:08;4.50;;;3.10;;
76837;SDS011;65797;47.352;8.164;2024-01-15T17:06:34;5.70;;;3.00;;
76837;SDS011;65797;47.352;8.164;2024-01-15T17:09:00;6.23;;;3.70;;
76837;SDS011;65797;47.352;8.164;2024-01-15T17:11:26;7.07;;;3.50;;
76837;SDS011;65797;47.352;8.164;2024-01-15T17:13:52;4.23;;;2.60;;
76837;SDS011;65797;47.352;8.164;2024-01-15T17:16:18;5.97;;;3.47;;
76837;SDS011;65797;47.352;8.164;2024-01-15T17:18:44;5.13;;;3.50;;
76837;SDS011;65797;47.352;8.164;2024-01-15T17:21:10;6.23;;;3.60;;
76837;SDS011;65797;47.352;8.164;2024-01-15T17:28:46;4.17;;;2.90;;
76837;SDS011;65797;47.352;8.164;2024-01-15T17:31:12;4.30;;;2.40;;
76837;SDS011;65797;47.352;8.164;2024-01-15T17:33:38;3.10;;;2.30;;
76837;SDS011;65797;47.352;8.164;2024-01-15T17:36:04;3.77;;;2.80;;
76837;SDS011;65797;47.352;8.164;2024-01-15T17:38:31;5.00;;;3.03;;
76837;SDS011;65797;47.352;8.164;2024-01-15T17:40:58;4.70;;;2.60;;
76837;SDS011;65797;47.352;8.164;2024-01-15T17:43:24;4.83;;;3.07;;
76837;SDS011;65797;47.352;8.164;2024-01-15T17:45:49;4.17;;;3.07;;
76837;SDS011;65797;47.352;8.164;2024-01-15T17:48:16;3.37;;;2.60;;
76837;SDS011;65797;47.352;8.164;2024-01-15T17:50:42;3.13;;;2.43;;
76837;SDS011;65797;47.352;8.164;2024-01-15T17:53:08;9.10;;;3.60;;
76837;SDS011;65797;47.352;8.164;2024-01-15T17:55:35;7.10;;;2.83;;
76837;SDS011;65797;47.352;8.164;2024-01-15T17:58:01;3.83;;;2.80;;
76837;SDS011;65797;47.352;8.164;2024-01-15T18:00:27;5.13;;;3.20;;
76837;SDS011;65797;47.352;8.164;2024-01-15T18:02:53;4.70;;;3.00;;
76837;SDS011;65797;47.352;8.164;2024-01-15T18:05:20;3.73;;;2.70;;
76837;SDS011;65797;47.352;8.164;2024-01-15T18:07:46;4.00;;;2.77;;
76837;SDS011;65797;47.352;8.164;2024-01-15T18:10:12;3.53;;;3.20;;
76837;SDS011;65797;47.352;8.164;2024-01-15T18:12:37;7.30;;;3.27;;
76837;SDS011;65797;47.352;8.164;2024-01-15T18:15:04;5.33;;;2.83;;
76837;SDS011;65797;47.352;8.164;2024-01-15T18:17:30;3.83;;;2.73;;
76837;SDS011;65797;47.352;8.164;2024-01-15T18:19:58;3.80;;;2.90;;
76837;SDS011;65797;47.352;8.164;2024-01-15T18:22:23;6.07;;;4.10;;
76837;SDS011;65797;47.352;8.164;2024-01-15T18:24:51;6.30;;;3.77;;
76837;SDS011;65797;47.352;8.164;2024-01-15T18:27:18;5.80;;;3.50;;
76837;SDS011;65797;47.352;8.164;2024-01-15T18:29:43;5.73;;;4.10;;
76837;SDS011;65797;47.352;8.164;2024-01-15T18:32:10;7.90;;;4.00;;
76837;SDS011;65797;47.352;8.164;2024-01-15T18:34:36;8.63;;;4.30;;
76837;SDS011;65797;47.352;8.164;2024-01-15T18:37:02;9.30;;;4.40;;
76837;SDS011;65797;47.352;8.164;2024-01-15T18:39:27;7.73;;;4.87;;
76837;SDS011;65797;47.352;8.164;2024-01-15T18:41:53;10.87;;;5.73;;
76837;SDS011;65797;47.352;8.164;2024-01-15T18:44:19;9.10;;;5.03;;
76837;SDS011;65797;47.352;8.164;2024-01-15T18:46:46;11.27;;;5.50;;
76837;SDS011;65797;47.352;8.164;2024-01-15T18:49:13;9.50;;;5.27;;
76837;SDS011;65797;47.352;8.164;2024-01-15T18:51:39;9.27;;;5.90;;
76837;SDS011;65797;47.352;8.164;2024-01-15T18:54:05;13.60;;;6.30;;
76837;SDS011;65797;47.352;8.164;2024-01-15T18:56:31;11.30;;;6.20;;
76837;SDS011;65797;47.352;8.164;2024-01-15T18:58:59;9.07;;;5.30;;
76837;SDS011;65797;47.352;8.164;2024-01-15T19:01:29;12.53;;;6.07;;
76837;SDS011;65797;47.352;8.164;2024-01-15T19:03:55;13.23;;;7.27;;
76837;SDS011;65797;47.352;8.164;2024-01-15T19:06:22;9.70;;;5.57;;
76837;SDS011;65797;47.352;8.164;2024-01-15T19:08:48;10.00;;;5.67;;
76837;SDS011;65797;47.352;8.164;2024-01-15T19:11:15;14.63;;;6.47;;
76837;SDS011;65797;47.352;8.164;2024-01-15T19:13:41;12.47;;;6.47;;
76837;SDS011;65797;47.352;8.164;2024-01-15T19:16:06;11.97;;;6.77;;
76837;SDS011;65797;47.352;8.164;2024-01-15T19:18:32;14.33;;;7.10;;
76837;SDS011;65797;47.352;8.164;2024-01-15T19:20:59;9.77;;;5.43;;
76837;SDS011;65797;47.352;8.164;2024-01-15T19:23:30;9.87;;;6.47;;
76837;SDS011;65797;47.352;8.164;2024-01-15T19:25:56;10.13;;;5.27;;
76837;SDS011;65797;47.352;8.164;2024-01-15T19:28:22;12.00;;;5.90;;
76837;SDS011;65797;47.352;8.164;2024-01-15T19:30:48;11.00;;;6.23;;
76837;SDS011;65797;47.352;8.164;2024-01-15T19:33:15;15.13;;;7.10;;
76837;SDS011;65797;47.352;8.164;2024-01-15T19:35:41;14.90;;;6.67;;
76837;SDS011;65797;47.352;8.164;2024-01-15T19:38:06;11.47;;;6.30;;
76837;SDS011;65797;47.352;8.164;2024-01-15T19:40:32;11.77;;;6.37;;
76837;SDS011;65797;47.352;8.164;2024-01-15T19:42:58;11.03;;;5.60;;
76837;SDS011;65797;47.352;8.164;2024-01-15T19:45:26;11.13;;;5.77;;
76837;SDS011;65797;47.352;8.164;2024-01-15T19:47:52;11.57;;;6.70;;
76837;SDS011;65797;47.352;8.164;2024-01-15T19:50:18;12.90;;;6.40;;
76837;SDS011;65797;47.352;8.164;2024-01-15T19:52:43;10.00;;;5.40;;
76837;SDS011;65797;47.352;8.164;2024-01-15T19:55:09;12.30;;;5.90;;